createdAt,value
2022-10-17T00:01:21.662Z,14.63
2022-10-17T00:03:50.539Z,12.87
2022-10-17T00:06:20.110Z,16.17
2022-10-17T00:08:48.665Z,15.90
2022-10-17T00:11:21.328Z,11.50
2022-10-17T00:13:55.634Z,13.30
2022-10-17T00:16:29.169Z,12.13
2022-10-17T00:18:58.613Z,14.33
2022-10-17T00:21:27.762Z,14.97
2022-10-17T00:23:56.318Z,15.83
2022-10-17T00:26:25.156Z,14.90
2022-10-17T00:28:56.665Z,16.70
2022-10-17T00:31:26.300Z,14.70
2022-10-17T00:33:54.945Z,16.00
2022-10-17T00:36:25.515Z,15.03
2022-10-17T00:38:58.069Z,16.40
2022-10-17T00:41:30.282Z,12.23
2022-10-17T00:44:02.211Z,16.23
2022-10-17T00:46:34.363Z,14.60
2022-10-17T00:49:08.006Z,17.30
2022-10-17T00:51:40.434Z,13.73
2022-10-17T00:54:10.953Z,17.87
2022-10-17T00:56:40.629Z,17.60
2022-10-17T00:59:12.441Z,17.03
2022-10-17T01:01:41.835Z,22.40
2022-10-17T01:04:11.053Z,14.87
2022-10-17T01:06:41.260Z,15.93
2022-10-17T01:09:10.358Z,19.33
2022-10-17T01:11:46.924Z,14.47
2022-10-17T01:14:27.693Z,16.67
2022-10-17T01:17:04.155Z,18.87
2022-10-17T01:20:13.577Z,15.93
2022-10-17T01:22:48.666Z,18.87
2022-10-17T01:25:31.073Z,20.03
2022-10-17T01:28:20.402Z,16.23
2022-10-17T01:31:08.991Z,19.97
2022-10-17T01:33:54.158Z,15.23
2022-10-17T01:36:32.782Z,14.90
2022-10-17T01:39:08.478Z,21.03
2022-10-17T01:41:42.013Z,14.23
2022-10-17T01:44:15.832Z,15.17
2022-10-17T01:46:51.019Z,19.17
2022-10-17T01:49:25.072Z,16.97
2022-10-17T01:52:00.863Z,17.30
2022-10-17T01:54:34.849Z,19.40
2022-10-17T01:57:11.390Z,18.37
2022-10-17T01:59:42.920Z,18.60
2022-10-17T02:02:15.791Z,16.73
2022-10-17T02:04:46.286Z,24.07
2022-10-17T02:07:16.958Z,19.70
2022-10-17T02:09:45.757Z,18.17
2022-10-17T02:12:30.924Z,16.60
2022-10-17T02:15:19.996Z,17.87
2022-10-17T02:17:59.296Z,14.33
2022-10-17T02:20:33.215Z,21.93
2022-10-17T02:23:11.960Z,17.20
2022-10-17T02:25:50.033Z,24.57
2022-10-17T02:28:23.442Z,18.67
2022-10-17T02:30:59.700Z,18.43
2022-10-17T02:33:33.098Z,21.73
2022-10-17T02:36:07.008Z,20.03
2022-10-17T02:38:36.673Z,21.10
2022-10-17T02:41:09.867Z,18.70
2022-10-17T02:43:39.817Z,20.40
2022-10-17T02:46:09.202Z,16.80
2022-10-17T02:48:44.904Z,17.47
2022-10-17T02:51:17.391Z,16.27
2022-10-17T02:53:54.897Z,18.57
2022-10-17T02:56:23.786Z,18.93
2022-10-17T02:58:55.550Z,18.53
2022-10-17T03:01:24.465Z,20.27
2022-10-17T03:04:06.293Z,17.40
2022-10-17T03:06:35.025Z,17.07
2022-10-17T03:09:03.662Z,19.00
2022-10-17T03:11:32.314Z,21.40
2022-10-17T03:14:01.194Z,20.30
2022-10-17T03:16:30.257Z,17.50
2022-10-17T03:19:00.536Z,18.93
2022-10-17T03:21:29.203Z,19.30
2022-10-17T03:23:59.398Z,15.33
2022-10-17T03:26:29.656Z,19.30
2022-10-17T03:28:59.482Z,16.37
2022-10-17T03:31:30.445Z,18.83
2022-10-17T03:34:03.623Z,20.03
2022-10-17T03:36:32.350Z,20.70
2022-10-17T03:39:01.163Z,20.73
2022-10-17T03:41:30.047Z,20.53
2022-10-17T03:43:58.527Z,15.83
2022-10-17T03:46:27.255Z,16.47
2022-10-17T03:48:57.080Z,17.53
2022-10-17T03:51:28.106Z,15.90
2022-10-17T03:54:03.167Z,21.07
2022-10-17T03:56:31.821Z,20.20
2022-10-17T03:59:14.249Z,15.93
2022-10-17T04:01:45.291Z,19.57
2022-10-17T04:04:14.546Z,18.00
2022-10-17T04:06:44.324Z,17.20
2022-10-17T04:09:13.155Z,18.27
2022-10-17T04:11:53.874Z,19.87
2022-10-17T04:14:23.603Z,20.70
2022-10-17T04:16:53.614Z,22.67
2022-10-17T04:19:23.889Z,17.03
2022-10-17T04:21:53.995Z,18.60
2022-10-17T04:24:22.899Z,22.87
2022-10-17T04:26:57.322Z,20.67
2022-10-17T04:29:29.491Z,23.40
2022-10-17T04:32:09.158Z,19.97
2022-10-17T04:34:55.219Z,20.00
2022-10-17T04:37:26.153Z,21.90
2022-10-17T04:39:56.429Z,18.30
2022-10-17T04:42:25.072Z,18.10
2022-10-17T04:44:55.425Z,20.40
2022-10-17T04:47:26.348Z,19.50
2022-10-17T04:49:54.999Z,23.00
2022-10-17T04:52:26.713Z,15.40
2022-10-17T04:54:55.994Z,15.57
2022-10-17T04:57:25.031Z,16.23
2022-10-17T05:00:26.077Z,21.30
2022-10-17T05:03:01.747Z,21.60
2022-10-17T05:05:31.624Z,20.10
2022-10-17T05:08:03.776Z,20.00
2022-10-17T05:10:38.096Z,16.87
2022-10-17T05:13:07.422Z,18.27
2022-10-17T05:15:37.882Z,19.10
2022-10-17T05:18:07.415Z,22.60
2022-10-17T05:20:37.076Z,21.43
2022-10-17T05:23:09.146Z,15.37
2022-10-17T05:25:41.553Z,17.33
2022-10-17T05:28:10.062Z,18.07
2022-10-17T05:30:40.591Z,22.37
2022-10-17T05:33:10.631Z,15.87
2022-10-17T05:35:39.381Z,24.17
2022-10-17T05:38:09.367Z,17.27
2022-10-17T05:40:39.727Z,18.13
2022-10-17T05:43:08.383Z,25.50
2022-10-17T05:45:37.957Z,17.37
2022-10-17T05:48:10.286Z,16.37
2022-10-17T05:50:39.293Z,15.47
2022-10-17T05:53:17.495Z,18.07
2022-10-17T05:55:57.092Z,18.70
2022-10-17T05:58:45.478Z,14.33
2022-10-17T06:01:25.647Z,18.13
2022-10-17T06:03:55.140Z,20.07
2022-10-17T06:06:23.926Z,18.87
2022-10-17T06:08:54.352Z,16.80
2022-10-17T06:11:28.402Z,19.10
2022-10-17T06:13:57.444Z,18.20
2022-10-17T06:16:28.073Z,22.10
2022-10-17T06:18:56.697Z,18.03
2022-10-17T06:21:28.277Z,21.77
2022-10-17T06:24:08.593Z,22.73
2022-10-17T06:26:39.157Z,18.03
2022-10-17T06:29:09.855Z,16.83
2022-10-17T06:31:44.969Z,17.07
2022-10-17T06:34:14.093Z,22.87
2022-10-17T06:36:43.140Z,18.03
2022-10-17T06:39:13.982Z,15.70
2022-10-17T06:41:53.263Z,14.27
2022-10-17T06:44:22.787Z,14.40
2022-10-17T06:47:10.932Z,15.07
2022-10-17T06:49:39.606Z,13.07
2022-10-17T06:52:30.964Z,16.10
2022-10-17T06:55:22.654Z,17.90
2022-10-17T06:58:10.174Z,15.33
2022-10-17T07:00:46.006Z,15.83
2022-10-17T07:03:15.011Z,16.07
2022-10-17T07:05:43.831Z,14.37
2022-10-17T07:08:12.408Z,13.30
2022-10-17T07:10:42.498Z,20.83
2022-10-17T07:13:11.045Z,16.43
2022-10-17T07:15:40.027Z,16.33
2022-10-17T07:18:08.805Z,15.93
2022-10-17T07:20:37.650Z,17.40
2022-10-17T07:23:06.991Z,18.70
2022-10-17T07:25:39.343Z,17.40
2022-10-17T07:28:12.352Z,16.27
2022-10-17T07:30:41.920Z,17.47
2022-10-17T07:33:13.645Z,14.27
2022-10-17T07:35:42.267Z,15.67
2022-10-17T07:38:11.945Z,13.60
2022-10-17T07:40:40.491Z,17.93
2022-10-17T07:43:09.199Z,10.90
2022-10-17T07:45:42.112Z,13.70
2022-10-17T07:48:11.092Z,15.53
2022-10-17T07:50:40.797Z,21.47
2022-10-17T07:53:09.228Z,11.70
2022-10-17T07:55:38.441Z,16.00
2022-10-17T07:58:07.648Z,14.73
2022-10-17T08:00:36.303Z,11.93
2022-10-17T08:03:07.553Z,14.57
2022-10-17T08:05:36.544Z,15.00
2022-10-17T08:08:05.542Z,14.63
2022-10-17T08:10:34.169Z,16.27
2022-10-17T08:13:03.338Z,12.23
2022-10-17T08:15:32.250Z,10.03
2022-10-17T08:18:01.257Z,12.50
2022-10-17T08:20:31.485Z,13.97
2022-10-17T08:23:00.140Z,11.67
2022-10-17T08:25:28.729Z,10.53
2022-10-17T08:27:57.393Z,13.47
2022-10-17T08:30:26.348Z,16.43
2022-10-17T08:32:56.791Z,13.70
2022-10-17T08:35:25.390Z,11.13
2022-10-17T08:37:57.702Z,10.70
2022-10-17T08:40:29.245Z,11.90
2022-10-17T08:43:14.622Z,10.97
2022-10-17T08:45:48.850Z,13.30
2022-10-17T08:48:19.843Z,14.17
2022-10-17T08:50:54.002Z,9.93
2022-10-17T08:53:31.847Z,9.40
2022-10-17T08:56:11.927Z,9.00
2022-10-17T08:58:44.660Z,9.37
2022-10-17T09:01:28.294Z,10.70
2022-10-17T09:04:26.364Z,15.37
2022-10-17T09:07:03.176Z,7.53
2022-10-17T09:09:41.513Z,5.63
2022-10-17T09:12:25.178Z,8.03
2022-10-17T09:15:22.344Z,13.97
2022-10-17T09:17:56.036Z,10.70
2022-10-17T09:20:27.817Z,10.93
2022-10-17T09:23:00.266Z,11.07
2022-10-17T09:25:33.910Z,10.97
2022-10-17T09:28:15.463Z,9.43
2022-10-17T09:30:46.491Z,8.20
2022-10-17T09:33:35.058Z,6.83
2022-10-17T09:36:07.714Z,9.87
2022-10-17T09:38:42.458Z,7.63
2022-10-17T09:41:43.531Z,15.63
2022-10-17T09:44:18.071Z,10.70
2022-10-17T09:46:59.200Z,9.60
2022-10-17T09:49:40.358Z,9.23
2022-10-17T09:52:15.362Z,7.57
2022-10-17T09:54:46.349Z,12.93
2022-10-17T09:57:18.879Z,8.40
2022-10-17T09:59:56.878Z,10.00
2022-10-17T10:02:27.895Z,10.17
2022-10-17T10:05:04.715Z,8.53
2022-10-17T10:07:37.128Z,10.13
2022-10-17T10:10:10.047Z,10.40
2022-10-17T10:12:41.182Z,12.63
2022-10-17T10:15:35.285Z,6.97
2022-10-17T10:18:04.434Z,10.37
2022-10-17T10:20:37.099Z,13.17
2022-10-17T10:23:24.428Z,18.10
2022-10-17T10:25:57.446Z,10.90
2022-10-17T10:28:33.081Z,9.83
2022-10-17T10:31:08.542Z,7.87
2022-10-17T10:33:44.145Z,14.97
2022-10-17T10:36:15.818Z,13.83
2022-10-17T10:38:54.854Z,14.93
2022-10-17T10:41:28.097Z,12.13
2022-10-17T10:43:58.224Z,11.90
2022-10-17T10:46:30.250Z,12.00
2022-10-17T10:49:01.578Z,9.57
2022-10-17T10:51:34.905Z,7.70
2022-10-17T10:54:10.118Z,13.37
2022-10-17T10:56:43.827Z,14.27
2022-10-17T10:59:22.102Z,11.80
2022-10-17T11:01:56.999Z,17.87
2022-10-17T11:04:32.656Z,12.40
2022-10-17T11:07:11.673Z,12.40
2022-10-17T11:09:50.239Z,12.47
2022-10-17T11:12:26.583Z,14.40
2022-10-17T11:15:04.165Z,11.37
2022-10-17T11:17:40.611Z,11.30
2022-10-17T11:20:20.464Z,12.53
2022-10-17T11:22:50.516Z,12.43
2022-10-17T11:25:36.370Z,17.70
2022-10-17T11:28:12.710Z,13.33
2022-10-17T11:30:48.330Z,12.47
2022-10-17T11:33:25.785Z,11.10
2022-10-17T11:36:00.048Z,13.17
2022-10-17T11:38:42.037Z,13.40
2022-10-17T11:41:15.741Z,13.60
2022-10-17T11:43:49.802Z,15.27
2022-10-17T11:46:24.579Z,10.50
2022-10-17T11:49:02.699Z,16.37
2022-10-17T11:54:31.075Z,14.00
2022-10-17T11:57:14.687Z,13.53
2022-10-17T12:00:03.153Z,15.93
2022-10-17T12:02:44.063Z,16.63
2022-10-17T12:05:24.887Z,15.03
2022-10-17T12:12:35.350Z,17.90
2022-10-17T12:15:29.903Z,17.40
2022-10-17T12:18:04.345Z,17.43
2022-10-17T12:20:45.440Z,11.80
2022-10-17T12:23:28.482Z,12.80
2022-10-17T12:26:04.735Z,12.20
2022-10-17T12:28:35.288Z,15.87
2022-10-17T12:31:10.138Z,11.97
2022-10-17T12:33:50.239Z,13.00
2022-10-17T12:36:42.354Z,11.60
2022-10-17T12:39:53.121Z,9.77
2022-10-17T12:42:47.727Z,13.60
2022-10-17T12:45:48.944Z,8.93
2022-10-17T12:49:07.152Z,10.67
2022-10-17T12:52:09.351Z,15.53
2022-10-17T12:54:48.036Z,15.23
2022-10-17T12:57:26.712Z,12.93
2022-10-17T13:05:13.153Z,12.97
2022-10-17T13:07:44.541Z,12.63
2022-10-17T13:10:51.735Z,13.53
2022-10-17T13:14:27.348Z,15.03
2022-10-17T13:17:26.973Z,14.43
2022-10-17T13:20:36.217Z,12.50
2022-10-17T13:23:40.409Z,19.87
2022-10-17T13:27:12.269Z,14.40
2022-10-17T13:35:01.135Z,15.10
2022-10-17T13:38:40.373Z,13.83
2022-10-17T13:45:20.402Z,19.57
2022-10-17T13:47:50.092Z,10.53
2022-10-17T13:50:43.137Z,15.63
2022-10-17T13:53:40.034Z,13.20
2022-10-17T13:56:39.617Z,16.67
2022-10-17T14:03:07.735Z,8.57
2022-10-17T14:06:44.081Z,9.47
2022-10-17T14:13:45.760Z,8.53
2022-10-17T14:16:41.232Z,11.77
2022-10-17T14:19:42.055Z,13.27
2022-10-17T14:22:20.004Z,10.87
2022-10-17T14:24:50.964Z,7.97
2022-10-17T14:27:30.330Z,16.97
2022-10-17T14:30:03.257Z,9.90
2022-10-17T14:32:35.608Z,13.93
2022-10-17T14:35:30.505Z,13.00
2022-10-17T14:38:08.155Z,12.10
2022-10-17T14:41:23.537Z,16.63
2022-10-17T14:43:58.521Z,13.17
2022-10-17T14:46:29.828Z,19.37
2022-10-17T14:49:06.701Z,12.30
2022-10-17T14:51:50.311Z,11.63
2022-10-17T14:54:29.434Z,12.40
2022-10-17T14:56:59.691Z,12.30
2022-10-17T15:02:26.049Z,14.57
2022-10-17T15:04:55.960Z,14.37
2022-10-17T15:08:21.401Z,13.80
2022-10-17T15:10:53.699Z,15.37
2022-10-17T15:13:32.388Z,16.43
2022-10-17T15:16:05.149Z,16.77
2022-10-17T15:18:34.959Z,14.20
2022-10-17T15:21:43.402Z,18.07
2022-10-17T15:24:21.864Z,15.00
2022-10-17T15:29:23.939Z,15.60
2022-10-17T15:31:55.262Z,16.93
2022-10-17T15:34:24.086Z,14.47
2022-10-17T15:36:54.142Z,18.93
2022-10-17T15:39:23.265Z,15.17
2022-10-17T15:41:53.647Z,18.50
2022-10-17T15:44:22.871Z,20.50
2022-10-17T15:46:52.465Z,21.27
2022-10-17T15:49:21.685Z,15.43
2022-10-17T15:51:55.182Z,15.10
2022-10-17T15:54:27.002Z,16.87
2022-10-17T15:56:58.253Z,18.33
2022-10-17T15:59:32.570Z,24.03
2022-10-17T16:02:03.285Z,17.40
2022-10-17T16:04:32.015Z,18.97
2022-10-17T16:07:01.392Z,18.80
2022-10-17T16:09:30.206Z,18.90
2022-10-17T16:12:02.688Z,24.73
2022-10-17T16:14:32.620Z,18.00
2022-10-17T16:17:02.198Z,17.47
2022-10-17T16:19:31.399Z,17.57
2022-10-17T16:22:04.766Z,27.13
2022-10-17T16:24:35.320Z,20.47
2022-10-17T16:27:06.891Z,15.97
2022-10-17T16:29:38.197Z,23.53
2022-10-17T16:32:09.085Z,21.50
2022-10-17T16:34:44.945Z,18.33
2022-10-17T16:37:17.742Z,19.30
2022-10-17T16:39:49.313Z,19.30
2022-10-17T16:42:20.100Z,19.00
2022-10-17T16:44:52.120Z,24.00
2022-10-17T16:47:20.918Z,23.43
2022-10-17T16:49:49.739Z,23.07
2022-10-17T16:52:18.584Z,23.17
2022-10-17T16:54:49.282Z,22.13
2022-10-17T16:57:20.131Z,26.93
2022-10-17T16:59:50.831Z,19.83
2022-10-17T17:02:21.375Z,22.47
2022-10-17T17:04:56.685Z,23.10
2022-10-17T17:07:25.358Z,23.37
2022-10-17T17:09:55.908Z,22.53
2022-10-17T17:12:26.834Z,22.23
2022-10-17T17:14:57.450Z,22.77
2022-10-17T17:17:44.284Z,23.43
2022-10-17T17:20:21.182Z,25.17
2022-10-17T17:22:53.666Z,19.87
2022-10-17T17:25:23.519Z,22.47
2022-10-17T17:27:53.978Z,26.17
2022-10-17T17:30:25.883Z,29.10
2022-10-17T17:32:55.226Z,36.23
2022-10-17T17:35:23.941Z,30.07
2022-10-17T17:37:53.092Z,32.93
2022-10-17T17:40:22.143Z,26.27
2022-10-17T17:42:51.357Z,26.07
2022-10-17T17:45:21.641Z,27.30
2022-10-17T17:47:51.985Z,25.73
2022-10-17T17:50:20.977Z,25.83
2022-10-17T17:52:51.615Z,31.93
2022-10-17T17:55:21.990Z,24.50
2022-10-17T17:57:52.468Z,30.60
2022-10-17T18:00:23.666Z,23.50
2022-10-17T18:02:52.927Z,24.70
2022-10-17T18:05:22.125Z,31.43
2022-10-17T18:07:52.159Z,24.20
2022-10-17T18:10:21.429Z,21.30
2022-10-17T18:12:50.557Z,21.67
2022-10-17T18:15:20.474Z,24.30
2022-10-17T18:17:51.170Z,25.80
2022-10-17T18:20:20.356Z,23.40
2022-10-17T18:22:49.425Z,24.00
2022-10-17T18:25:18.069Z,25.23
2022-10-17T18:27:48.947Z,19.40
2022-10-17T18:30:21.159Z,23.27
2022-10-17T18:33:28.452Z,21.47
2022-10-17T18:35:58.403Z,24.83
2022-10-17T18:38:28.060Z,18.83
2022-10-17T18:41:04.641Z,21.47
2022-10-17T18:43:36.081Z,25.53
2022-10-17T18:46:10.933Z,21.33
2022-10-17T18:48:46.605Z,23.30
2022-10-17T18:51:17.949Z,23.90
2022-10-17T18:53:48.953Z,21.73
2022-10-17T18:56:21.556Z,27.07
2022-10-17T18:58:50.824Z,20.97
2022-10-17T19:01:22.482Z,23.27
2022-10-17T19:03:54.649Z,25.27
2022-10-17T19:06:33.583Z,23.97
2022-10-17T19:09:04.101Z,29.67
2022-10-17T19:11:34.783Z,26.50
2022-10-17T19:14:07.353Z,28.63
2022-10-17T19:16:38.608Z,24.47
2022-10-17T19:19:12.500Z,25.83
2022-10-17T19:21:43.563Z,29.87
2022-10-17T19:24:16.141Z,27.93
2022-10-17T19:26:47.099Z,26.57
2022-10-17T19:29:18.527Z,28.83
2022-10-17T19:34:29.102Z,23.80
2022-10-17T19:36:58.823Z,22.60
2022-10-17T19:39:27.510Z,30.80
2022-10-17T19:41:57.067Z,27.93
2022-10-17T19:44:25.765Z,25.00
2022-10-17T19:46:54.571Z,20.37
2022-10-17T19:49:23.067Z,22.40
2022-10-17T19:51:53.139Z,19.00
2022-10-17T19:54:21.797Z,23.93
2022-10-17T19:56:50.982Z,18.47
2022-10-17T19:59:20.113Z,20.33
2022-10-17T20:01:48.887Z,19.37
2022-10-17T20:04:17.680Z,18.03
2022-10-17T20:06:46.751Z,23.63
2022-10-17T20:09:17.542Z,20.83
2022-10-17T20:11:47.893Z,15.30
2022-10-17T20:14:16.682Z,12.20
2022-10-17T20:16:50.250Z,17.37
2022-10-17T20:19:19.589Z,16.77
2022-10-17T20:21:50.251Z,14.57
2022-10-17T20:24:20.566Z,12.83
2022-10-17T20:26:52.107Z,15.47
2022-10-17T20:29:23.873Z,16.53
2022-10-17T20:31:52.717Z,12.27
2022-10-17T20:34:21.786Z,18.30
2022-10-17T20:36:51.452Z,18.17
2022-10-17T20:39:22.690Z,15.63
2022-10-17T20:41:51.784Z,14.90
2022-10-17T20:44:20.796Z,16.90
2022-10-17T20:47:01.250Z,15.67
2022-10-17T20:49:31.827Z,15.53
2022-10-17T20:52:02.319Z,13.93
2022-10-17T20:54:33.889Z,16.17
2022-10-17T20:57:04.929Z,15.33
2022-10-17T20:59:36.346Z,12.40
2022-10-17T21:02:06.659Z,15.83
2022-10-17T21:04:50.971Z,15.47
2022-10-17T21:07:19.752Z,12.93
2022-10-17T21:09:50.340Z,25.40
2022-10-17T21:12:30.871Z,11.53
2022-10-17T21:15:01.194Z,13.67
2022-10-17T21:17:30.321Z,13.13
2022-10-17T21:20:00.128Z,15.57
2022-10-17T21:22:31.433Z,12.23
2022-10-17T21:25:05.086Z,17.43
2022-10-17T21:27:34.595Z,13.23
2022-10-17T21:30:04.107Z,11.63
2022-10-17T21:32:50.497Z,14.17
2022-10-17T21:35:21.011Z,13.03
2022-10-17T21:37:50.390Z,16.97
2022-10-17T21:40:20.841Z,14.33
2022-10-17T21:42:49.709Z,13.27
2022-10-17T21:45:25.423Z,13.03
2022-10-17T21:48:12.164Z,17.10
2022-10-17T21:50:42.635Z,11.00
2022-10-17T21:53:11.212Z,17.00
2022-10-17T21:55:41.310Z,23.10
2022-10-17T21:58:10.817Z,15.77
2022-10-17T22:00:41.478Z,10.67
2022-10-17T22:03:12.897Z,13.33
2022-10-17T22:05:41.830Z,14.53
2022-10-17T22:08:10.583Z,12.83
2022-10-17T22:10:42.675Z,14.10
2022-10-17T22:13:11.561Z,13.90
2022-10-17T22:15:41.085Z,12.93
2022-10-17T22:18:10.078Z,15.20
2022-10-17T22:20:39.048Z,16.10
2022-10-17T22:23:07.671Z,11.07
2022-10-17T22:25:36.442Z,10.93
2022-10-17T22:28:07.025Z,11.93
2022-10-17T22:30:35.751Z,14.87
2022-10-17T22:33:04.750Z,15.27
2022-10-17T22:35:33.270Z,15.67
2022-10-17T22:38:02.211Z,14.23
2022-10-17T22:40:30.698Z,12.97
2022-10-17T22:42:59.138Z,16.17
2022-10-17T22:45:29.138Z,8.10
2022-10-17T22:47:58.375Z,9.33
2022-10-17T22:50:27.990Z,11.30
2022-10-17T22:52:56.583Z,15.87
2022-10-17T22:55:25.989Z,13.50
2022-10-17T22:57:54.638Z,13.67
2022-10-17T23:00:23.711Z,13.20
2022-10-17T23:02:56.954Z,10.80
2022-10-17T23:05:25.402Z,13.10
2022-10-17T23:07:54.241Z,22.13
2022-10-17T23:10:22.833Z,13.00
2022-10-17T23:12:51.602Z,17.67
2022-10-17T23:15:20.166Z,21.77
2022-10-17T23:17:48.763Z,15.47
2022-10-17T23:20:19.081Z,17.53
2022-10-17T23:22:47.555Z,14.07
2022-10-17T23:25:17.722Z,13.83
2022-10-17T23:27:46.357Z,12.67
2022-10-17T23:30:15.377Z,11.30
2022-10-17T23:32:44.991Z,25.57
2022-10-17T23:35:14.022Z,15.10
2022-10-17T23:37:44.354Z,21.13
2022-10-17T23:40:14.153Z,14.90
2022-10-17T23:42:42.767Z,9.23
2022-10-17T23:45:12.388Z,15.27
2022-10-17T23:47:40.919Z,15.10
2022-10-17T23:50:09.924Z,23.37
2022-10-17T23:52:38.816Z,12.73
2022-10-17T23:55:10.705Z,18.70
2022-10-17T23:57:39.780Z,22.17
